John M Carras — SVBK5 — position and weather

sailwx.info

Track history (hours):
 
Tides and Currents Weather Stations Pressure Air Temp Water Temp Dewpoint Dewpoint Depression Visibility Wind Speed Wind Dir Waves Ship Positions

John M Carras

Last reported at 2014-Aug-11 22:23 UTC. Time now 2014-Aug-22 19:42 UTC.
Position N 01°09' E 103°45'.
Warning: this ship's position is 10 days out of date.

Length 229 m; draft 14.2 m.

Type: Cargo ship. MMSI: 241150000.

Date/timePositionNaut miles runAvg speedWind from/ knotsBaromVisibWave heightAir tempDewpointWater temp
2014-Aug-11 22:23N 01°09' E 103°45'6 7.6
2014-Aug-11 21:33N 01°12' E 103°51'8 7.9
2014-Aug-11 20:33N 01°16' E 103°58'2 2.2
2014-Aug-11 19:32N 01°17' E 103°59'0 0.0
2014-Aug-11 18:32N 01°17' E 103°59'0 0.0
2014-Aug-11 17:33N 01°17' E 103°59'0 0.1
2014-Aug-11 16:32N 01°17' E 103°59'0 0.2
2014-Aug-11 15:32N 01°17' E 103°59'0 0.0
2014-Aug-11 14:20N 01°17' E 103°59'0 0.0
2014-Aug-11 13:33N 01°17' E 103°59'0 0.0
2014-Aug-11 12:33N 01°17' E 103°59'0 0.0
2014-Aug-11 11:33N 01°17' E 103°59'0 0.0
2014-Aug-11 10:33N 01°17' E 103°59'0 0.0
2014-Aug-11 09:26N 01°17' E 103°59'0 0.1
2014-Aug-11 08:32N 01°17' E 103°59'2 1.7
2014-Aug-11 07:34N 01°16' E 103°59'6 6.0
2014-Aug-11 06:32N 01°17' E 104°05'  
2014-Aug-05 23:09N 21°35' E 108°20'0 0.0
2014-Aug-05 22:22N 21°35' E 108°20'  
Track history (hours):
 
Tides and Currents Weather Stations Pressure Air Temp Water Temp Dewpoint Dewpoint Depression Visibility Wind Speed Wind Dir Waves Ship Positions

John M Carras

Last reported at 2014-Aug-11 22:23 UTC. Time now 2014-Aug-22 19:42 UTC.
Position N 01°09' E 103°45'.
Warning: this ship's position is 10 days out of date.

Length 229 m; draft 14.2 m.

Type: Cargo ship. MMSI: 241150000.

Date/timePositionNaut miles runAvg speedWind from/ knotsBaromVisibWave heightAir tempDewpointWater temp
2014-Aug-11 22:23N 01°09' E 103°45'6 7.6
2014-Aug-11 21:33N 01°12' E 103°51'8 7.9
2014-Aug-11 20:33N 01°16' E 103°58'2 2.2
2014-Aug-11 19:32N 01°17' E 103°59'0 0.0
2014-Aug-11 18:32N 01°17' E 103°59'0 0.0
2014-Aug-11 17:33N 01°17' E 103°59'0 0.1
2014-Aug-11 16:32N 01°17' E 103°59'0 0.2
2014-Aug-11 15:32N 01°17' E 103°59'0 0.0
2014-Aug-11 14:20N 01°17' E 103°59'0 0.0
2014-Aug-11 13:33N 01°17' E 103°59'0 0.0
2014-Aug-11 12:33N 01°17' E 103°59'0 0.0
2014-Aug-11 11:33N 01°17' E 103°59'0 0.0
2014-Aug-11 10:33N 01°17' E 103°59'0 0.0
2014-Aug-11 09:26N 01°17' E 103°59'0 0.1
2014-Aug-11 08:32N 01°17' E 103°59'2 1.7
2014-Aug-11 07:34N 01°16' E 103°59'6 6.0
2014-Aug-11 06:32N 01°17' E 104°05'  
2014-Aug-05 23:09N 21°35' E 108°20'0 0.0
2014-Aug-05 22:22N 21°35' E 108°20'  

Dump ship's entire track history